Pelagos — SZSW — position and weather

sailwx.info

Track history (hours):
 
Tides and Currents Weather Stations Pressure Air Temp Water Temp Dewpoint Dewpoint Depression Visibility Wind Speed Wind Dir Waves Ship Positions

Pelagos

Last reported at 2014-Oct-24 02:16 UTC. Time now 2014-Oct-24 18:55 UTC.
Position N 42°03' E 010°22'.

Length 249 m; draft 8 m.

Type: Ship. MMSI: 240335000.

Date/timePositionNaut miles runAvg speedWind from/ knotsBaromVisibWave heightAir tempDewpointWater temp
2014-Oct-24 02:16N 42°03' E 010°22'6110.7
2014-Oct-23 20:33N 42°55' E 009°39'1111.0
2014-Oct-23 19:33N 43°05' E 009°34'1111.0
2014-Oct-23 18:33N 43°16' E 009°31'1111.0
2014-Oct-23 17:34N 43°27' E 009°28'1111.0
2014-Oct-23 16:33N 43°38' E 009°24'1110.9
2014-Oct-23 15:33N 43°47' E 009°17'1111.0
2014-Oct-23 14:33N 43°56' E 009°08'1110.9
2014-Oct-23 13:33N 44°05' E 008°59'1110.9
2014-Oct-23 12:34N 44°14' E 008°50'1010.0
2014-Oct-23 11:33N 44°23' E 008°47'3 0.1
2014-Oct-21 12:07N 44°25' E 008°50'2 3.5
2014-Oct-21 11:33N 44°24' E 008°48'5 4.5
2014-Oct-21 10:33N 44°20' E 008°46'1211.2
2014-Oct-21 09:30N 44°08' E 008°45'1 1.4
2014-Oct-21 08:33N 44°07' E 008°45'0 0.3
2014-Oct-21 07:33N 44°07' E 008°45'0 0.2
2014-Oct-21 06:33N 44°06' E 008°45'0 0.2
2014-Oct-21 05:33N 44°06' E 008°45'0 0.3
2014-Oct-21 04:33N 44°06' E 008°45'0 0.3
2014-Oct-21 03:33N 44°06' E 008°45'0 0.2
2014-Oct-21 02:33N 44°05' E 008°45'0 0.2
2014-Oct-21 01:33N 44°05' E 008°45'0 0.2
2014-Oct-21 00:33N 44°05' E 008°45'0 0.2
2014-Oct-20 23:33N 44°05' E 008°45'0 0.2
2014-Oct-20 22:33N 44°05' E 008°45'0 0.3
2014-Oct-20 21:33N 44°04' E 008°45'0 0.3
2014-Oct-20 20:33N 44°04' E 008°45'0 0.3
2014-Oct-20 19:33N 44°04' E 008°45'2 2.2
2014-Oct-20 18:33N 44°06' E 008°45'3 2.9
2014-Oct-20 17:33N 44°09' E 008°44'0 0.3
2014-Oct-20 16:33N 44°09' E 008°45'0 0.3
2014-Oct-20 15:33N 44°09' E 008°45'0 0.3
2014-Oct-20 14:33N 44°08' E 008°45'0 0.3
2014-Oct-20 13:33N 44°08' E 008°45'0 0.2
2014-Oct-20 12:33N 44°08' E 008°44'0 0.2
2014-Oct-20 11:33N 44°08' E 008°44'0 0.1
2014-Oct-20 10:33N 44°08' E 008°44'0 0.1
2014-Oct-20 09:33N 44°08' E 008°44'0 0.2
2014-Oct-20 08:33N 44°08' E 008°44'0 0.2
2014-Oct-20 07:33N 44°07' E 008°44'0 0.3
2014-Oct-20 06:33N 44°07' E 008°45'0 0.3
2014-Oct-20 05:33N 44°07' E 008°45'0 0.2
2014-Oct-20 04:33N 44°07' E 008°45'0 0.2
2014-Oct-20 03:33N 44°07' E 008°45'0 0.2
2014-Oct-20 02:33N 44°06' E 008°46'0 0.1
2014-Oct-20 01:33N 44°06' E 008°46'0 0.1
2014-Oct-20 00:33N 44°06' E 008°46'0 0.1
2014-Oct-19 23:33N 44°06' E 008°46'0 0.1
2014-Oct-19 22:33N 44°06' E 008°46'0 0.0
2014-Oct-19 21:33N 44°06' E 008°46'0 0.0
2014-Oct-19 20:33N 44°06' E 008°46'0 0.1
2014-Oct-19 19:33N 44°06' E 008°46'0 0.2
2014-Oct-19 18:33N 44°06' E 008°46'0 0.2
2014-Oct-19 17:33N 44°06' E 008°46'0 0.2
2014-Oct-19 16:33N 44°06' E 008°46'0 0.4
2014-Oct-19 15:33N 44°07' E 008°47'1 1.2
2014-Oct-19 14:33N 44°08' E 008°47'5 4.9
2014-Oct-19 13:33N 44°13' E 008°48'8 7.6
2014-Oct-19 12:33N 44°20' E 008°48'2 1.5
2014-Oct-19 11:33N 44°19' E 008°48'7 7.2
2014-Oct-19 10:33N 44°12' E 008°50'6 6.5
2014-Oct-19 09:33N 44°05' E 008°50'0 0.4
2014-Oct-19 08:33N 44°05' E 008°49'3 3.1
2014-Oct-19 07:33N 44°07' E 008°46'1 0.9
2014-Oct-19 06:33N 44°08' E 008°45'0 0.4
2014-Oct-19 05:33N 44°08' E 008°46'1 0.5
2014-Oct-19 04:31N 44°08' E 008°46'0 0.5
2014-Oct-19 03:33N 44°07' E 008°47'0 0.5
2014-Oct-19 02:33N 44°07' E 008°48'0 0.4
2014-Oct-19 01:32N 44°07' E 008°48'0 0.4
2014-Oct-19 00:32N 44°07' E 008°49'0 0.3
2014-Oct-18 23:33N 44°07' E 008°49'0 0.2
2014-Oct-18 22:33N 44°07' E 008°49'0 0.2
2014-Oct-18 21:33N 44°07' E 008°50'0 0.3
2014-Oct-18 20:33N 44°07' E 008°50'0 0.3
2014-Oct-18 19:33N 44°07' E 008°50'0 0.2
2014-Oct-18 18:33N 44°07' E 008°50'1 0.7
2014-Oct-18 17:33N 44°08' E 008°50'4 4.4
2014-Oct-18 16:33N 44°11' E 008°46'1 0.7
2014-Oct-18 15:33N 44°10' E 008°47'1 0.8
2014-Oct-18 14:33N 44°10' E 008°48'1 0.8
2014-Oct-18 13:33N 44°09' E 008°48'1 0.7
2014-Oct-18 12:33N 44°09' E 008°49'1 0.7
2014-Oct-18 11:33N 44°09' E 008°50'1 0.6
2014-Oct-18 10:33N 44°08' E 008°50'0 0.4
2014-Oct-18 09:33N 44°08' E 008°50'0 0.2
2014-Oct-18 08:33N 44°08' E 008°51'1 0.9
2014-Oct-18 07:33N 44°09' E 008°50'5 4.8
2014-Oct-18 06:33N 44°13' E 008°53'0 0.4
2014-Oct-18 05:33N 44°12' E 008°53'0 0.5
2014-Oct-18 04:33N 44°12' E 008°53'1 0.5
2014-Oct-18 03:33N 44°11' E 008°53'1 0.7
2014-Oct-18 02:33N 44°11' E 008°52'1 0.6
2014-Oct-18 01:33N 44°10' E 008°52'1 0.7
2014-Oct-18 00:33N 44°10' E 008°51'1 0.7
2014-Oct-17 23:33N 44°09' E 008°51'1 0.7
2014-Oct-17 22:33N 44°08' E 008°51'0 0.1
2014-Oct-17 21:33N 44°08' E 008°50'5 5.2
2014-Oct-17 20:34N 44°13' E 008°47'1 1.0
2014-Oct-17 19:33N 44°13' E 008°48'1 0.9
2014-Oct-17 18:33N 44°12' E 008°49'1 0.9
2014-Oct-17 17:33N 44°11' E 008°50'1 0.8
2014-Oct-17 16:33N 44°10' E 008°50'1 0.8
2014-Oct-17 15:33N 44°10' E 008°50'1 0.7
2014-Oct-17 14:33N 44°09' E 008°51'3 2.7
2014-Oct-17 13:33N 44°11' E 008°53'1 0.6
2014-Oct-17 12:33N 44°11' E 008°52'1 0.8
2014-Oct-17 11:33N 44°10' E 008°52'1 0.8
2014-Oct-17 10:33N 44°09' E 008°51'1 0.7
2014-Oct-17 09:33N 44°09' E 008°50'3 3.2
2014-Oct-17 08:33N 44°11' E 008°53'1 0.9
2014-Oct-17 07:33N 44°11' E 008°52'1 0.8
2014-Oct-17 06:33N 44°10' E 008°51'1 0.8
2014-Oct-17 05:33N 44°10' E 008°51'1 0.9
2014-Oct-17 04:33N 44°09' E 008°50'3 2.9
2014-Oct-17 03:33N 44°12' E 008°49'1 0.5
2014-Oct-17 02:33N 44°12' E 008°50'1 0.8
2014-Oct-17 01:33N 44°11' E 008°50'1 0.6
2014-Oct-17 00:33N 44°11' E 008°50'1 0.6
2014-Oct-16 23:33N 44°10' E 008°50'1 0.5
2014-Oct-16 22:33N 44°09' E 008°50'1 1.1
2014-Oct-16 21:33N 44°11' E 008°50'9 8.9
2014-Oct-16 20:33N 44°20' E 008°49'8 7.7
2014-Oct-16 19:33N 44°12' E 008°51'1010.1
2014-Oct-16 18:33N 44°02' E 008°49'1110.5
2014-Oct-16 17:33N 43°54' E 008°40'1110.6
2014-Oct-16 16:33N 43°45' E 008°31'33310.4
2014-Oct-15 08:30N 39°25' E 003°54'1010.3
2014-Oct-15 07:32N 39°19' E 003°43'1010.5
2014-Oct-15 06:33N 39°14' E 003°32'1110.6
2014-Oct-15 05:33N 39°08' E 003°21'1110.6
2014-Oct-15 04:33N 39°02' E 003°09'1110.6
2014-Oct-15 03:33N 38°56' E 002°58'1110.5
2014-Oct-15 02:33N 38°51' E 002°46'1110.5
2014-Oct-15 01:33N 38°45' E 002°35'1110.6
2014-Oct-15 00:33N 38°39' E 002°23'  
Track history (hours):
 
Tides and Currents Weather Stations Pressure Air Temp Water Temp Dewpoint Dewpoint Depression Visibility Wind Speed Wind Dir Waves Ship Positions

Pelagos

Last reported at 2014-Oct-24 02:16 UTC. Time now 2014-Oct-24 18:55 UTC.
Position N 42°03' E 010°22'.

Length 249 m; draft 8 m.

Type: Ship. MMSI: 240335000.

Date/timePositionNaut miles runAvg speedWind from/ knotsBaromVisibWave heightAir tempDewpointWater temp
2014-Oct-24 02:16N 42°03' E 010°22'6110.7
2014-Oct-23 20:33N 42°55' E 009°39'1111.0
2014-Oct-23 19:33N 43°05' E 009°34'1111.0
2014-Oct-23 18:33N 43°16' E 009°31'1111.0
2014-Oct-23 17:34N 43°27' E 009°28'1111.0
2014-Oct-23 16:33N 43°38' E 009°24'1110.9
2014-Oct-23 15:33N 43°47' E 009°17'1111.0
2014-Oct-23 14:33N 43°56' E 009°08'1110.9
2014-Oct-23 13:33N 44°05' E 008°59'1110.9
2014-Oct-23 12:34N 44°14' E 008°50'1010.0
2014-Oct-23 11:33N 44°23' E 008°47'3 0.1
2014-Oct-21 12:07N 44°25' E 008°50'2 3.5
2014-Oct-21 11:33N 44°24' E 008°48'5 4.5
2014-Oct-21 10:33N 44°20' E 008°46'1211.2
2014-Oct-21 09:30N 44°08' E 008°45'1 1.4
2014-Oct-21 08:33N 44°07' E 008°45'0 0.3
2014-Oct-21 07:33N 44°07' E 008°45'0 0.2
2014-Oct-21 06:33N 44°06' E 008°45'0 0.2
2014-Oct-21 05:33N 44°06' E 008°45'0 0.3
2014-Oct-21 04:33N 44°06' E 008°45'0 0.3
2014-Oct-21 03:33N 44°06' E 008°45'0 0.2
2014-Oct-21 02:33N 44°05' E 008°45'0 0.2
2014-Oct-21 01:33N 44°05' E 008°45'0 0.2
2014-Oct-21 00:33N 44°05' E 008°45'0 0.2
2014-Oct-20 23:33N 44°05' E 008°45'0 0.2
2014-Oct-20 22:33N 44°05' E 008°45'0 0.3
2014-Oct-20 21:33N 44°04' E 008°45'0 0.3
2014-Oct-20 20:33N 44°04' E 008°45'0 0.3
2014-Oct-20 19:33N 44°04' E 008°45'2 2.2
2014-Oct-20 18:33N 44°06' E 008°45'3 2.9
2014-Oct-20 17:33N 44°09' E 008°44'0 0.3
2014-Oct-20 16:33N 44°09' E 008°45'0 0.3
2014-Oct-20 15:33N 44°09' E 008°45'0 0.3
2014-Oct-20 14:33N 44°08' E 008°45'0 0.3
2014-Oct-20 13:33N 44°08' E 008°45'0 0.2
2014-Oct-20 12:33N 44°08' E 008°44'0 0.2
2014-Oct-20 11:33N 44°08' E 008°44'0 0.1
2014-Oct-20 10:33N 44°08' E 008°44'0 0.1
2014-Oct-20 09:33N 44°08' E 008°44'0 0.2
2014-Oct-20 08:33N 44°08' E 008°44'0 0.2
2014-Oct-20 07:33N 44°07' E 008°44'0 0.3
2014-Oct-20 06:33N 44°07' E 008°45'0 0.3
2014-Oct-20 05:33N 44°07' E 008°45'0 0.2
2014-Oct-20 04:33N 44°07' E 008°45'0 0.2
2014-Oct-20 03:33N 44°07' E 008°45'0 0.2
2014-Oct-20 02:33N 44°06' E 008°46'0 0.1
2014-Oct-20 01:33N 44°06' E 008°46'0 0.1
2014-Oct-20 00:33N 44°06' E 008°46'0 0.1
2014-Oct-19 23:33N 44°06' E 008°46'0 0.1
2014-Oct-19 22:33N 44°06' E 008°46'0 0.0
2014-Oct-19 21:33N 44°06' E 008°46'0 0.0
2014-Oct-19 20:33N 44°06' E 008°46'0 0.1
2014-Oct-19 19:33N 44°06' E 008°46'0 0.2
2014-Oct-19 18:33N 44°06' E 008°46'0 0.2
2014-Oct-19 17:33N 44°06' E 008°46'0 0.2
2014-Oct-19 16:33N 44°06' E 008°46'0 0.4
2014-Oct-19 15:33N 44°07' E 008°47'1 1.2
2014-Oct-19 14:33N 44°08' E 008°47'5 4.9
2014-Oct-19 13:33N 44°13' E 008°48'8 7.6
2014-Oct-19 12:33N 44°20' E 008°48'2 1.5
2014-Oct-19 11:33N 44°19' E 008°48'7 7.2
2014-Oct-19 10:33N 44°12' E 008°50'6 6.5
2014-Oct-19 09:33N 44°05' E 008°50'0 0.4
2014-Oct-19 08:33N 44°05' E 008°49'3 3.1
2014-Oct-19 07:33N 44°07' E 008°46'1 0.9
2014-Oct-19 06:33N 44°08' E 008°45'0 0.4
2014-Oct-19 05:33N 44°08' E 008°46'1 0.5
2014-Oct-19 04:31N 44°08' E 008°46'0 0.5
2014-Oct-19 03:33N 44°07' E 008°47'0 0.5
2014-Oct-19 02:33N 44°07' E 008°48'0 0.4
2014-Oct-19 01:32N 44°07' E 008°48'0 0.4
2014-Oct-19 00:32N 44°07' E 008°49'0 0.3
2014-Oct-18 23:33N 44°07' E 008°49'0 0.2
2014-Oct-18 22:33N 44°07' E 008°49'0 0.2
2014-Oct-18 21:33N 44°07' E 008°50'0 0.3
2014-Oct-18 20:33N 44°07' E 008°50'0 0.3
2014-Oct-18 19:33N 44°07' E 008°50'0 0.2
2014-Oct-18 18:33N 44°07' E 008°50'1 0.7
2014-Oct-18 17:33N 44°08' E 008°50'4 4.4
2014-Oct-18 16:33N 44°11' E 008°46'1 0.7
2014-Oct-18 15:33N 44°10' E 008°47'1 0.8
2014-Oct-18 14:33N 44°10' E 008°48'1 0.8
2014-Oct-18 13:33N 44°09' E 008°48'1 0.7
2014-Oct-18 12:33N 44°09' E 008°49'1 0.7
2014-Oct-18 11:33N 44°09' E 008°50'1 0.6
2014-Oct-18 10:33N 44°08' E 008°50'0 0.4
2014-Oct-18 09:33N 44°08' E 008°50'0 0.2
2014-Oct-18 08:33N 44°08' E 008°51'1 0.9
2014-Oct-18 07:33N 44°09' E 008°50'5 4.8
2014-Oct-18 06:33N 44°13' E 008°53'0 0.4
2014-Oct-18 05:33N 44°12' E 008°53'0 0.5
2014-Oct-18 04:33N 44°12' E 008°53'1 0.5
2014-Oct-18 03:33N 44°11' E 008°53'1 0.7
2014-Oct-18 02:33N 44°11' E 008°52'1 0.6
2014-Oct-18 01:33N 44°10' E 008°52'1 0.7
2014-Oct-18 00:33N 44°10' E 008°51'1 0.7
2014-Oct-17 23:33N 44°09' E 008°51'1 0.7
2014-Oct-17 22:33N 44°08' E 008°51'0 0.1
2014-Oct-17 21:33N 44°08' E 008°50'5 5.2
2014-Oct-17 20:34N 44°13' E 008°47'1 1.0
2014-Oct-17 19:33N 44°13' E 008°48'1 0.9
2014-Oct-17 18:33N 44°12' E 008°49'1 0.9
2014-Oct-17 17:33N 44°11' E 008°50'1 0.8
2014-Oct-17 16:33N 44°10' E 008°50'1 0.8
2014-Oct-17 15:33N 44°10' E 008°50'1 0.7
2014-Oct-17 14:33N 44°09' E 008°51'3 2.7
2014-Oct-17 13:33N 44°11' E 008°53'1 0.6
2014-Oct-17 12:33N 44°11' E 008°52'1 0.8
2014-Oct-17 11:33N 44°10' E 008°52'1 0.8
2014-Oct-17 10:33N 44°09' E 008°51'1 0.7
2014-Oct-17 09:33N 44°09' E 008°50'3 3.2
2014-Oct-17 08:33N 44°11' E 008°53'1 0.9
2014-Oct-17 07:33N 44°11' E 008°52'1 0.8
2014-Oct-17 06:33N 44°10' E 008°51'1 0.8
2014-Oct-17 05:33N 44°10' E 008°51'1 0.9
2014-Oct-17 04:33N 44°09' E 008°50'3 2.9
2014-Oct-17 03:33N 44°12' E 008°49'1 0.5
2014-Oct-17 02:33N 44°12' E 008°50'1 0.8
2014-Oct-17 01:33N 44°11' E 008°50'1 0.6
2014-Oct-17 00:33N 44°11' E 008°50'1 0.6
2014-Oct-16 23:33N 44°10' E 008°50'1 0.5
2014-Oct-16 22:33N 44°09' E 008°50'1 1.1
2014-Oct-16 21:33N 44°11' E 008°50'9 8.9
2014-Oct-16 20:33N 44°20' E 008°49'8 7.7
2014-Oct-16 19:33N 44°12' E 008°51'1010.1
2014-Oct-16 18:33N 44°02' E 008°49'1110.5
2014-Oct-16 17:33N 43°54' E 008°40'1110.6
2014-Oct-16 16:33N 43°45' E 008°31'33310.4
2014-Oct-15 08:30N 39°25' E 003°54'1010.3
2014-Oct-15 07:32N 39°19' E 003°43'1010.5
2014-Oct-15 06:33N 39°14' E 003°32'1110.6
2014-Oct-15 05:33N 39°08' E 003°21'1110.6
2014-Oct-15 04:33N 39°02' E 003°09'1110.6
2014-Oct-15 03:33N 38°56' E 002°58'1110.5
2014-Oct-15 02:33N 38°51' E 002°46'1110.5
2014-Oct-15 01:33N 38°45' E 002°35'1110.6
2014-Oct-15 00:33N 38°39' E 002°23'  

Dump ship's entire track history